Eau Pleine, Wisconsin
Current Conditions -  °F | °C
As of 2:15 AM on Tuesday 27 Jan 2015 (Local Time) from KSTE Reporting Station
Overcast Overcast  
Wind Chill: 20°   Ceiling: 700
Heat Index: 20°   Visibility: 7mi
Dew Point: 19°   Wind: 3mph
Humidity: 95%   Direction: 340°NNW
Pressure: 30"   Gusts: NA
Location:  44.6097°N, 89.7558°W
Report Text: KSTE 270815Z AUTO 34003KT 7SM OVC007 M06/M07 A3000 RMK AO2 T10651072
Loading
Personal Weather Stations






























Interactive Weather Map New forecast layout! Learn more

10-Day Weather Forecast

Advertisements
Track Severe Weather on mobile